createdAt,value
2022-11-10T00:00:37.892Z,77.80
2022-11-10T00:03:24.421Z,77.86
2022-11-10T00:06:10.475Z,77.83
2022-11-10T00:08:57.201Z,77.40
2022-11-10T00:11:43.413Z,76.96
2022-11-10T00:14:47.258Z,76.64
2022-11-10T00:17:36.200Z,77.09
2022-11-10T00:20:22.616Z,77.53
2022-11-10T00:23:08.488Z,76.66
2022-11-10T00:25:54.229Z,76.86
2022-11-10T00:28:40.437Z,76.22
2022-11-10T00:31:28.773Z,76.63
2022-11-10T00:34:16.765Z,76.26
2022-11-10T00:37:03.116Z,76.02
2022-11-10T00:39:49.147Z,75.78
2022-11-10T00:42:35.314Z,75.80
2022-11-10T00:45:21.112Z,76.72
2022-11-10T00:48:07.125Z,77.13
2022-11-10T00:50:55.798Z,78.09
2022-11-10T00:53:41.613Z,78.22
2022-11-10T00:56:27.550Z,78.75
2022-11-10T00:59:13.465Z,78.63
2022-11-10T01:01:59.332Z,78.57
2022-11-10T01:04:45.185Z,78.50
2022-11-10T01:07:32.493Z,78.54
2022-11-10T01:10:18.408Z,78.66
2022-11-10T01:13:04.089Z,79.33
2022-11-10T01:15:50.012Z,79.38
2022-11-10T01:18:36.347Z,77.92
2022-11-10T01:21:23.103Z,77.68
2022-11-10T01:24:09.024Z,77.01
2022-11-10T01:26:54.900Z,77.79
2022-11-10T01:29:40.723Z,78.09
2022-11-10T01:32:26.743Z,78.35
2022-11-10T01:35:13.224Z,78.02
2022-11-10T01:37:59.282Z,76.58
2022-11-10T01:40:45.756Z,75.54
2022-11-10T01:43:32.472Z,75.67
2022-11-10T01:46:18.384Z,75.45
2022-11-10T01:49:04.946Z,75.29
2022-11-10T01:51:54.986Z,75.90
2022-11-10T01:54:48.540Z,76.38
2022-11-10T01:57:36.229Z,77.37
2022-11-10T02:00:22.582Z,77.56
2022-11-10T02:03:32.460Z,78.31
2022-11-10T02:06:22.969Z,78.31
2022-11-10T02:09:09.239Z,78.08
2022-11-10T02:11:56.730Z,76.33
2022-11-10T02:14:43.530Z,76.18
2022-11-10T02:17:29.400Z,76.88
2022-11-10T02:20:18.695Z,77.60
2022-11-10T02:23:30.320Z,79.38
2022-11-10T02:26:20.828Z,79.13
2022-11-10T02:29:06.874Z,79.86
2022-11-10T02:31:52.780Z,80.82
2022-11-10T02:34:38.342Z,81.33
2022-11-10T02:37:24.130Z,81.78
2022-11-10T02:40:10.517Z,82.21
2022-11-10T02:42:56.279Z,82.80
2022-11-10T02:45:44.732Z,81.73
2022-11-10T02:48:32.433Z,78.71
2022-11-10T02:51:18.678Z,77.13
2022-11-10T02:54:04.334Z,78.09
2022-11-10T02:56:50.206Z,78.84
2022-11-10T02:59:35.845Z,78.92
2022-11-10T03:02:21.676Z,77.46
2022-11-10T03:05:07.709Z,77.45
2022-11-10T03:07:58.004Z,78.58
2022-11-10T03:10:43.644Z,79.48
2022-11-10T03:13:45.293Z,80.27
2022-11-10T03:16:36.724Z,79.73
2022-11-10T03:19:22.685Z,79.43
2022-11-10T03:22:08.427Z,79.37
2022-11-10T03:24:54.251Z,78.83
2022-11-10T03:27:40.359Z,78.53
2022-11-10T03:30:26.675Z,78.47
2022-11-10T03:33:12.314Z,78.67
2022-11-10T03:35:58.312Z,77.50
2022-11-10T03:38:44.306Z,77.44
2022-11-10T03:41:30.271Z,75.84
2022-11-10T03:44:15.997Z,75.46
2022-11-10T03:47:04.201Z,75.46
2022-11-10T03:49:50.046Z,75.86
2022-11-10T03:52:35.756Z,76.09
2022-11-10T03:55:21.757Z,76.12
2022-11-10T03:58:07.788Z,76.87
2022-11-10T04:00:55.086Z,76.31
2022-11-10T04:03:41.039Z,76.31
2022-11-10T04:06:45.235Z,77.46
2022-11-10T04:09:31.250Z,77.26
2022-11-10T04:12:35.238Z,77.02
2022-11-10T04:15:39.951Z,77.94
2022-11-10T04:18:26.065Z,78.65
2022-11-10T04:21:12.468Z,78.60
2022-11-10T04:23:58.297Z,76.56
2022-11-10T04:26:44.976Z,76.61
2022-11-10T04:29:30.994Z,76.04
2022-11-10T04:32:16.697Z,76.18
2022-11-10T04:35:03.871Z,75.50
2022-11-10T04:37:49.708Z,75.76
2022-11-10T04:40:35.771Z,76.27
2022-11-10T04:43:22.139Z,77.00
2022-11-10T04:46:13.246Z,77.43
2022-11-10T04:49:00.317Z,76.54
2022-11-10T04:51:46.777Z,76.66
2022-11-10T04:54:32.209Z,77.33
2022-11-10T04:57:18.182Z,77.81
2022-11-10T05:00:05.103Z,77.72
2022-11-10T05:02:50.657Z,78.12
2022-11-10T05:05:38.408Z,78.57
2022-11-10T05:08:24.446Z,77.74
2022-11-10T05:11:11.196Z,78.16
2022-11-10T05:13:57.242Z,78.16
2022-11-10T05:16:43.364Z,78.54
2022-11-10T05:19:29.185Z,77.79
2022-11-10T05:22:15.460Z,77.39
2022-11-10T05:25:01.424Z,76.04
2022-11-10T05:27:47.601Z,76.32
2022-11-10T05:30:33.783Z,76.67
2022-11-10T05:33:19.952Z,77.15
2022-11-10T05:36:07.587Z,77.56
2022-11-10T05:38:53.707Z,77.09
2022-11-10T05:41:39.492Z,77.36
2022-11-10T05:44:25.468Z,76.27
2022-11-10T05:47:11.275Z,76.45
2022-11-10T05:49:57.203Z,76.15
2022-11-10T05:52:50.354Z,75.76
2022-11-10T05:55:36.849Z,75.11
2022-11-10T05:58:22.964Z,74.73
2022-11-10T06:01:08.718Z,74.70
2022-11-10T06:03:54.446Z,74.25
2022-11-10T06:06:40.349Z,74.51
2022-11-10T06:09:26.246Z,74.18
2022-11-10T06:12:11.988Z,73.63
2022-11-10T06:14:58.521Z,73.45
2022-11-10T06:17:45.097Z,73.17
2022-11-10T06:20:30.834Z,73.11
2022-11-10T06:23:18.086Z,72.76
2022-11-10T06:26:04.077Z,72.57
2022-11-10T08:21:32.820Z,58.79
2022-11-10T08:24:18.524Z,57.50
2022-11-10T08:27:09.467Z,56.88
2022-11-10T08:29:55.066Z,56.31
2022-11-10T08:32:40.813Z,55.37
2022-11-10T08:35:29.808Z,54.71
2022-11-10T08:38:21.399Z,54.24
2022-11-10T08:41:07.684Z,54.74
2022-11-10T08:43:53.690Z,53.42
2022-11-10T08:46:39.987Z,53.00
2022-11-10T08:49:28.030Z,54.67
2022-11-10T08:52:14.331Z,53.05
2022-11-10T09:07:31.830Z,52.65
2022-11-10T09:10:17.712Z,52.73
2022-11-10T09:13:04.819Z,52.69
2022-11-10T09:35:04.080Z,51.61
2022-11-10T09:37:51.702Z,51.40
2022-11-10T10:32:19.964Z,51.25
2022-11-10T10:35:07.432Z,52.14
2022-11-10T10:37:56.483Z,52.09
2022-11-10T10:40:43.477Z,50.13
2022-11-10T10:43:29.462Z,48.75
2022-11-10T10:46:20.536Z,49.55
2022-11-10T10:49:31.364Z,49.19
2022-11-10T10:52:25.439Z,48.75
2022-11-10T10:55:13.517Z,48.84
2022-11-10T10:58:21.180Z,47.64
2022-11-10T11:01:33.113Z,48.01
2022-11-10T11:04:36.123Z,48.28
2022-11-10T11:07:24.809Z,49.38
2022-11-10T11:10:19.763Z,49.08
2022-11-10T11:13:27.103Z,49.11
2022-11-10T11:16:13.495Z,49.26
2022-11-10T11:18:59.046Z,48.35
2022-11-10T11:22:00.000Z,48.83
2022-11-10T11:25:08.810Z,49.35
2022-11-10T11:28:28.627Z,50.40
2022-11-10T11:31:42.898Z,50.06
2022-11-10T11:35:10.560Z,50.32
2022-11-10T11:37:56.234Z,50.27
2022-11-10T11:40:57.907Z,50.40
2022-11-10T11:44:11.541Z,49.82
2022-11-10T11:47:09.442Z,50.63
2022-11-10T11:50:24.992Z,50.41
2022-11-10T11:53:48.040Z,48.44
2022-11-10T11:56:41.606Z,44.86
2022-11-10T11:59:30.571Z,42.04
2022-11-10T12:02:53.676Z,38.83
2022-11-10T12:06:07.071Z,38.77
2022-11-10T12:09:25.102Z,39.67
2022-11-10T12:12:20.505Z,45.51
2022-11-10T12:15:30.451Z,47.82
2022-11-10T12:18:25.687Z,49.01
2022-11-10T12:21:32.916Z,48.70
2022-11-10T12:24:24.852Z,46.92
2022-11-10T12:27:35.952Z,47.58
2022-11-10T12:30:23.475Z,48.77
2022-11-10T12:33:21.970Z,49.47
2022-11-10T12:36:13.301Z,50.31
2022-11-10T12:39:24.146Z,51.23
2022-11-10T12:42:20.254Z,50.15
2022-11-10T12:45:15.771Z,50.18
2022-11-10T12:48:03.776Z,50.88
2022-11-10T12:51:22.000Z,51.79
2022-11-10T12:54:16.688Z,52.50
2022-11-10T12:57:16.608Z,53.49
2022-11-10T13:00:31.395Z,52.73
2022-11-10T13:03:36.585Z,52.13
2022-11-10T13:06:32.764Z,52.98
2022-11-10T13:09:40.521Z,52.61
2022-11-10T13:12:26.815Z,52.37
2022-11-10T13:15:59.983Z,53.05
2022-11-10T13:18:53.496Z,54.18
2022-11-10T13:21:51.567Z,52.81
2022-11-10T13:24:39.954Z,53.57
2022-11-10T13:27:44.555Z,54.40
2022-11-10T13:30:52.981Z,54.83
2022-11-10T13:33:39.663Z,54.94
2022-11-10T13:36:38.379Z,54.78
2022-11-10T13:39:27.492Z,55.80
2022-11-10T13:42:24.151Z,56.40
2022-11-10T13:45:29.685Z,55.65
2022-11-10T13:48:18.427Z,55.95
2022-11-10T13:51:23.231Z,56.16
2022-11-10T13:54:32.881Z,55.32
2022-11-10T13:57:41.280Z,55.91
2022-11-10T14:00:31.080Z,55.69
2022-11-10T14:03:45.163Z,56.13
2022-11-10T14:06:53.453Z,56.51
2022-11-10T14:10:00.935Z,56.34
2022-11-10T14:13:03.119Z,56.76
2022-11-10T14:15:50.921Z,56.96
2022-11-10T14:18:47.095Z,57.42
2022-11-10T14:21:40.086Z,58.72
2022-11-10T14:24:38.513Z,59.83
2022-11-10T14:27:28.898Z,60.78
2022-11-10T14:30:50.708Z,61.76
2022-11-10T14:33:37.421Z,62.67
2022-11-10T14:36:26.017Z,63.24
2022-11-10T14:39:17.535Z,64.10
2022-11-10T14:42:06.053Z,64.08
2022-11-10T14:45:25.734Z,64.88
2022-11-10T14:48:20.302Z,65.23
2022-11-10T14:51:17.338Z,66.06
2022-11-10T14:54:03.331Z,66.27
2022-11-10T14:56:50.168Z,66.95
2022-11-10T14:59:38.312Z,67.38
2022-11-10T15:02:24.434Z,68.01
2022-11-10T15:05:16.937Z,68.45
2022-11-10T15:08:05.030Z,69.15
2022-11-10T15:10:56.713Z,69.79
2022-11-10T15:13:42.993Z,69.84
2022-11-10T15:16:38.815Z,70.30
2022-11-10T15:19:32.391Z,70.97
2022-11-10T15:22:37.330Z,71.23
2022-11-10T15:25:26.433Z,71.27
2022-11-10T15:28:33.571Z,71.56
2022-11-10T15:31:32.944Z,71.99
2022-11-10T15:34:45.601Z,72.48
2022-11-10T15:37:32.475Z,72.53
2022-11-10T15:40:36.053Z,72.95
2022-11-10T15:43:26.478Z,72.99
2022-11-10T15:46:24.736Z,73.49
2022-11-10T15:49:22.560Z,74.25
2022-11-10T15:52:15.596Z,74.56
2022-11-10T15:55:01.415Z,74.71
2022-11-10T15:57:47.181Z,75.10
2022-11-10T16:00:33.245Z,74.85
2022-11-10T16:03:20.106Z,75.08
2022-11-10T16:06:09.223Z,75.27
2022-11-10T16:08:55.097Z,75.87
2022-11-10T16:11:45.094Z,76.39
2022-11-10T16:14:31.199Z,76.43
2022-11-10T16:17:20.480Z,76.03
2022-11-10T16:20:15.255Z,76.63
2022-11-10T16:23:01.145Z,76.89
2022-11-10T16:25:49.990Z,77.14
2022-11-10T16:28:35.851Z,77.31
2022-11-10T16:31:22.368Z,77.69
2022-11-10T16:34:13.736Z,77.56
2022-11-10T16:36:59.768Z,77.47
2022-11-10T16:39:45.382Z,77.70
2022-11-10T16:42:31.341Z,78.16
2022-11-10T16:45:19.777Z,77.94
2022-11-10T16:48:07.860Z,78.33
2022-11-10T16:50:58.871Z,78.24
2022-11-10T16:53:45.695Z,78.13
2022-11-10T16:56:31.613Z,78.50
2022-11-10T16:59:17.504Z,78.66
2022-11-10T17:02:03.461Z,78.91
2022-11-10T17:04:49.516Z,79.01
2022-11-10T17:07:36.305Z,79.34
2022-11-10T17:10:22.455Z,79.29
2022-11-10T17:13:11.934Z,80.00
2022-11-10T17:16:04.260Z,80.24
2022-11-10T17:18:51.292Z,80.92
2022-11-10T17:21:37.456Z,81.01
2022-11-10T17:24:24.401Z,81.36
2022-11-10T17:27:10.766Z,81.71
2022-11-10T17:29:56.974Z,81.79
2022-11-10T17:33:04.324Z,81.88
2022-11-10T17:35:51.175Z,81.98
2022-11-10T17:38:36.938Z,82.67
2022-11-10T17:41:23.061Z,82.50
2022-11-10T17:44:16.466Z,83.11
2022-11-10T17:47:02.415Z,83.36
2022-11-10T17:49:48.082Z,83.06
2022-11-10T17:52:34.861Z,83.48
2022-11-10T17:55:23.648Z,83.28
2022-11-10T17:58:11.003Z,83.68
2022-11-10T18:00:56.776Z,83.78
2022-11-10T18:03:43.232Z,83.83
2022-11-10T18:06:28.911Z,83.40
2022-11-10T18:09:14.814Z,84.13
2022-11-10T18:12:00.783Z,84.12
2022-11-10T18:14:46.305Z,84.65
2022-11-10T18:17:32.278Z,84.46
2022-11-10T18:20:18.403Z,85.01
2022-11-10T18:23:04.607Z,85.33
2022-11-10T18:25:50.505Z,85.45
2022-11-10T18:28:36.581Z,85.23
2022-11-10T18:31:22.642Z,85.64
2022-11-10T18:34:08.368Z,85.82
2022-11-10T18:36:54.560Z,86.03
2022-11-10T18:39:40.156Z,86.66
2022-11-10T18:42:26.153Z,86.71
2022-11-10T18:45:13.244Z,86.79
2022-11-10T18:48:03.758Z,86.99
2022-11-10T18:50:49.718Z,87.17
2022-11-10T18:53:38.320Z,87.34
2022-11-10T18:56:25.420Z,86.81
2022-11-10T18:59:12.533Z,86.87
2022-11-10T19:01:58.198Z,87.08
2022-11-10T19:04:43.975Z,86.38
2022-11-10T19:07:30.287Z,85.66
2022-11-10T19:10:16.240Z,86.60
2022-11-10T19:13:02.082Z,86.42
2022-11-10T19:15:48.196Z,86.26
2022-11-10T19:18:39.643Z,86.07
2022-11-10T19:21:29.158Z,85.86
2022-11-10T19:24:25.836Z,86.35
2022-11-10T19:27:14.345Z,86.31
2022-11-10T19:30:00.225Z,86.49
2022-11-10T19:32:46.087Z,86.55
2022-11-10T19:35:33.246Z,86.46
2022-11-10T19:38:19.259Z,86.46
2022-11-10T19:41:13.571Z,85.77
2022-11-10T19:44:00.495Z,86.58
2022-11-10T19:46:47.017Z,85.81
2022-11-10T19:49:38.505Z,84.47
2022-11-10T19:52:24.466Z,84.66
2022-11-10T19:55:10.422Z,85.25
2022-11-10T19:57:56.083Z,85.45
2022-11-10T20:00:49.373Z,86.08
2022-11-10T20:03:35.659Z,86.58
2022-11-10T20:06:23.405Z,86.57
2022-11-10T20:09:09.341Z,87.08
2022-11-10T20:11:55.303Z,86.93
2022-11-10T20:14:41.439Z,86.54
2022-11-10T20:17:28.390Z,85.92
2022-11-10T20:20:14.472Z,86.45
2022-11-10T20:23:04.673Z,86.86
2022-11-10T20:26:00.907Z,87.11
2022-11-10T20:28:46.779Z,87.08
2022-11-10T20:31:32.595Z,87.37
2022-11-10T20:34:18.542Z,87.29
2022-11-10T20:37:04.288Z,87.62
2022-11-10T20:39:50.217Z,87.86
2022-11-10T20:42:42.437Z,88.08
2022-11-10T20:45:28.943Z,88.53
2022-11-10T20:48:15.844Z,88.76
2022-11-10T20:51:02.458Z,89.20
2022-11-10T20:53:49.231Z,89.16
2022-11-10T20:56:35.191Z,89.08
2022-11-10T20:59:21.273Z,89.23
2022-11-10T21:02:11.000Z,89.34
2022-11-10T21:04:56.651Z,89.61
2022-11-10T21:07:42.594Z,89.38
2022-11-10T21:10:28.582Z,89.43
2022-11-10T21:13:14.486Z,89.53
2022-11-10T21:16:02.761Z,89.74
2022-11-10T21:18:48.606Z,90.03
2022-11-10T21:21:34.928Z,89.88
2022-11-10T21:24:21.109Z,90.01
2022-11-10T21:27:06.862Z,90.19
2022-11-10T21:29:55.980Z,90.31
2022-11-10T21:32:41.906Z,90.16
2022-11-10T21:35:28.015Z,90.04
2022-11-10T21:38:14.293Z,90.40
2022-11-10T21:41:00.478Z,90.57
2022-11-10T21:43:46.398Z,90.38
2022-11-10T21:46:32.454Z,90.08
2022-11-10T21:49:18.477Z,90.34
2022-11-10T21:52:04.073Z,90.36
2022-11-10T21:54:49.966Z,90.14
2022-11-10T21:57:35.941Z,89.99
2022-11-10T22:00:22.028Z,90.04
2022-11-10T22:03:07.720Z,90.16
2022-11-10T22:05:53.574Z,89.94
2022-11-10T22:08:41.167Z,89.97
2022-11-10T22:11:45.141Z,89.68
2022-11-10T22:14:49.435Z,89.92
2022-11-10T22:17:54.463Z,89.75
2022-11-10T22:20:40.526Z,89.26
2022-11-10T22:23:44.989Z,89.13
2022-11-10T22:26:31.185Z,87.40
2022-11-10T22:29:17.268Z,87.01
2022-11-10T22:32:04.040Z,87.63
2022-11-10T22:34:49.862Z,87.87
2022-11-10T22:37:35.609Z,88.30
2022-11-10T22:40:40.023Z,88.70
2022-11-10T22:43:44.317Z,89.39
2022-11-10T22:46:35.516Z,89.65
2022-11-10T22:49:23.845Z,90.19
2022-11-10T22:52:10.472Z,90.20
2022-11-10T22:54:57.841Z,90.37
2022-11-10T22:57:43.623Z,90.77
2022-11-10T23:00:29.431Z,90.56
2022-11-10T23:03:15.452Z,90.89
2022-11-10T23:06:01.120Z,90.83
2022-11-10T23:08:47.461Z,91.60
2022-11-10T23:11:34.422Z,91.66
2022-11-10T23:14:20.510Z,91.68
2022-11-10T23:17:08.535Z,91.62
2022-11-10T23:19:54.214Z,91.74
2022-11-10T23:22:40.192Z,91.77
2022-11-10T23:25:26.117Z,90.66
2022-11-10T23:28:11.775Z,89.76
2022-11-10T23:31:12.792Z,89.02
2022-11-10T23:33:58.534Z,89.56
2022-11-10T23:36:44.276Z,89.14
2022-11-10T23:39:30.613Z,89.45
2022-11-10T23:42:16.829Z,89.51
2022-11-10T23:45:02.618Z,89.17
2022-11-10T23:47:48.573Z,89.22
2022-11-10T23:50:34.665Z,89.37
2022-11-10T23:53:20.672Z,89.64
2022-11-10T23:56:10.811Z,89.43
2022-11-10T23:58:56.744Z,89.66
